createdAt,value
2019-03-30T00:01:29.414Z,7.80
2019-03-30T00:03:31.642Z,7.80
2019-03-30T00:05:33.845Z,7.70
2019-03-30T00:07:36.073Z,7.70
2019-03-30T00:09:38.605Z,7.70
2019-03-30T00:11:41.069Z,7.70
2019-03-30T00:13:43.590Z,7.70
2019-03-30T00:15:45.814Z,7.70
2019-03-30T00:17:48.045Z,7.70
2019-03-30T00:19:50.550Z,7.60
2019-03-30T00:21:52.766Z,7.50
2019-03-30T00:23:54.994Z,7.50
2019-03-30T00:25:57.209Z,7.40
2019-03-30T00:27:59.438Z,7.40
2019-03-30T00:30:01.677Z,7.40
2019-03-30T00:32:03.989Z,7.40
2019-03-30T00:34:06.223Z,7.30
2019-03-30T00:36:08.442Z,7.30
2019-03-30T00:38:10.945Z,7.20
2019-03-30T00:40:13.167Z,7.20
2019-03-30T00:42:15.387Z,7.30
2019-03-30T00:44:17.619Z,7.20
2019-03-30T00:46:19.829Z,7.20
2019-03-30T00:48:22.060Z,7.20
2019-03-30T00:50:24.681Z,7.20
2019-03-30T00:52:26.894Z,7.10
2019-03-30T00:54:29.128Z,7.10
2019-03-30T00:56:31.366Z,7.10
2019-03-30T00:58:33.590Z,7.10
2019-03-30T01:00:35.813Z,7.10
2019-03-30T01:02:38.262Z,7.10
2019-03-30T01:04:40.484Z,7.10
2019-03-30T01:06:42.692Z,7.10
2019-03-30T01:08:45.455Z,7.00
2019-03-30T01:10:47.920Z,6.90
2019-03-30T01:12:50.140Z,6.80
2019-03-30T01:14:52.366Z,6.80
2019-03-30T01:16:54.579Z,6.80
2019-03-30T01:18:57.034Z,6.70
2019-03-30T01:20:59.257Z,6.70
2019-03-30T01:23:01.478Z,6.70
2019-03-30T01:25:04.818Z,6.80
2019-03-30T01:27:07.381Z,6.80
2019-03-30T01:29:09.614Z,6.80
2019-03-30T01:31:11.820Z,6.70
2019-03-30T01:33:14.024Z,6.60
2019-03-30T01:35:16.338Z,6.60
2019-03-30T01:37:18.933Z,6.60
2019-03-30T01:39:21.158Z,6.60
2019-03-30T01:41:23.397Z,6.60
2019-03-30T01:43:25.623Z,6.50
2019-03-30T01:45:27.949Z,6.50
2019-03-30T01:47:30.160Z,6.60
2019-03-30T01:49:32.394Z,6.60
2019-03-30T01:51:34.617Z,6.60
2019-03-30T01:53:36.837Z,6.60
2019-03-30T01:55:39.061Z,6.60
2019-03-30T01:57:41.600Z,6.60
2019-03-30T01:59:43.830Z,6.50
2019-03-30T02:01:46.050Z,6.40
2019-03-30T02:03:48.282Z,6.50
2019-03-30T02:05:50.502Z,6.40
2019-03-30T02:07:52.741Z,6.50
2019-03-30T02:09:54.971Z,6.50
2019-03-30T02:11:57.189Z,6.50
2019-03-30T02:13:59.425Z,6.50
2019-03-30T02:16:01.649Z,6.50
2019-03-30T02:18:04.022Z,6.50
2019-03-30T02:20:06.674Z,6.50
2019-03-30T02:22:08.889Z,6.50
2019-03-30T02:24:11.120Z,6.50
2019-03-30T02:26:13.336Z,6.40
2019-03-30T02:28:15.563Z,6.40
2019-03-30T02:30:17.781Z,6.30
2019-03-30T02:32:20.401Z,6.30
2019-03-30T02:34:22.624Z,6.30
2019-03-30T02:36:24.832Z,6.30
2019-03-30T02:38:27.088Z,6.20
2019-03-30T02:40:29.316Z,6.10
2019-03-30T02:42:31.537Z,6.10
2019-03-30T02:44:33.797Z,6.00
2019-03-30T02:46:36.009Z,5.90
2019-03-30T02:48:38.231Z,5.90
2019-03-30T02:50:49.559Z,5.90
2019-03-30T02:52:44.573Z,5.80
2019-03-30T02:54:46.804Z,5.80
2019-03-30T02:56:49.090Z,5.90
2019-03-30T02:58:51.346Z,5.90
2019-03-30T03:00:53.813Z,5.80
2019-03-30T03:02:56.147Z,5.90
2019-03-30T03:04:58.468Z,5.80
2019-03-30T03:07:00.686Z,5.80
2019-03-30T03:09:05.977Z,5.70
2019-03-30T03:11:08.229Z,5.70
2019-03-30T03:13:10.552Z,5.80
2019-03-30T03:15:12.857Z,5.80
2019-03-30T03:17:15.091Z,5.80
2019-03-30T03:19:17.310Z,5.80
2019-03-30T03:21:19.542Z,5.80
2019-03-30T03:23:22.086Z,5.70
2019-03-30T03:25:24.322Z,5.70
2019-03-30T03:27:26.542Z,5.70
2019-03-30T03:29:28.759Z,5.70
2019-03-30T03:31:30.992Z,5.70
2019-03-30T03:33:33.523Z,5.70
2019-03-30T03:35:35.751Z,5.70
2019-03-30T03:37:45.325Z,5.70
2019-03-30T03:39:42.099Z,5.70
2019-03-30T03:41:44.330Z,5.70
2019-03-30T03:43:47.144Z,5.60
2019-03-30T03:45:49.475Z,5.50
2019-03-30T03:47:51.694Z,5.50
2019-03-30T03:49:53.910Z,5.40
2019-03-30T03:51:56.375Z,5.40
2019-03-30T03:53:58.695Z,5.40
2019-03-30T03:56:01.204Z,5.40
2019-03-30T03:58:04.288Z,5.30
2019-03-30T04:00:07.015Z,5.30
2019-03-30T04:02:09.661Z,5.20
2019-03-30T04:04:12.218Z,5.20
2019-03-30T04:06:14.757Z,5.20
2019-03-30T04:08:17.266Z,5.20
2019-03-30T04:10:19.738Z,5.30
2019-03-30T04:12:22.922Z,5.20
2019-03-30T04:14:25.178Z,5.20
2019-03-30T04:16:27.503Z,5.10
2019-03-30T04:18:29.750Z,5.10
2019-03-30T04:20:31.977Z,5.10
2019-03-30T04:22:34.497Z,5.10
2019-03-30T04:24:37.039Z,4.90
2019-03-30T04:26:39.261Z,5.00
2019-03-30T04:28:41.495Z,5.00
2019-03-30T04:30:43.721Z,5.00
2019-03-30T04:32:45.939Z,5.00
2019-03-30T04:34:48.462Z,5.00
2019-03-30T04:36:50.694Z,4.90
2019-03-30T04:38:52.913Z,4.90
2019-03-30T04:40:55.145Z,5.00
2019-03-30T04:42:57.361Z,5.00
2019-03-30T04:44:59.590Z,5.10
2019-03-30T04:47:01.826Z,5.10
2019-03-30T04:49:04.045Z,5.10
2019-03-30T04:51:06.285Z,5.10
2019-03-30T04:53:08.866Z,5.10
2019-03-30T04:55:11.086Z,5.00
2019-03-30T04:57:13.333Z,5.00
2019-03-30T04:59:15.866Z,5.00
2019-03-30T05:01:18.093Z,5.00
2019-03-30T05:03:20.313Z,5.00
2019-03-30T05:05:22.875Z,4.90
2019-03-30T05:07:25.097Z,4.90
2019-03-30T05:09:27.318Z,4.90
2019-03-30T05:11:29.549Z,4.90
2019-03-30T05:13:34.085Z,4.90
2019-03-30T05:15:36.306Z,4.90
2019-03-30T05:17:47.398Z,4.90
2019-03-30T05:19:42.645Z,4.90
2019-03-30T05:21:44.868Z,4.90
2019-03-30T05:23:47.357Z,4.80
2019-03-30T05:25:49.569Z,4.80
2019-03-30T05:27:51.797Z,4.80
2019-03-30T05:29:54.382Z,4.80
2019-03-30T05:31:56.936Z,4.80
2019-03-30T05:33:59.163Z,4.90
2019-03-30T05:36:01.401Z,4.80
2019-03-30T05:38:04.043Z,4.80
2019-03-30T05:40:06.890Z,4.80
2019-03-30T05:42:09.104Z,4.90
2019-03-30T05:44:11.318Z,4.90
2019-03-30T05:46:13.530Z,5.00
2019-03-30T05:48:15.757Z,5.10
2019-03-30T05:50:17.977Z,5.10
2019-03-30T05:52:26.298Z,5.20
2019-03-30T05:54:24.348Z,5.20
2019-03-30T05:56:26.578Z,5.30
2019-03-30T05:58:28.814Z,5.40
2019-03-30T06:00:31.033Z,5.40
2019-03-30T06:02:33.268Z,5.50
2019-03-30T06:04:35.484Z,5.50
2019-03-30T06:06:38.226Z,5.70
2019-03-30T06:08:40.792Z,5.80
2019-03-30T06:10:43.021Z,5.90
2019-03-30T06:12:45.242Z,6.10
2019-03-30T06:14:47.706Z,6.20
2019-03-30T06:16:49.926Z,6.30
2019-03-30T06:18:52.155Z,6.50
2019-03-30T06:20:54.386Z,6.70
2019-03-30T06:22:56.617Z,6.80
2019-03-30T06:24:58.836Z,6.90
2019-03-30T06:27:01.087Z,7.10
2019-03-30T06:29:03.401Z,7.30
2019-03-30T06:31:05.626Z,7.50
2019-03-30T06:33:07.862Z,7.70
2019-03-30T06:35:10.092Z,7.90
2019-03-30T06:37:12.317Z,8.10
2019-03-30T06:39:14.542Z,8.30
2019-03-30T06:41:17.404Z,8.50
2019-03-30T06:43:19.621Z,8.80
2019-03-30T06:45:22.097Z,9.00
2019-03-30T06:47:24.316Z,9.30
2019-03-30T06:49:26.542Z,9.50
2019-03-30T06:51:28.749Z,9.70
2019-03-30T06:53:30.985Z,9.90
2019-03-30T06:55:33.201Z,10.20
2019-03-30T06:57:35.427Z,10.40
2019-03-30T06:59:37.903Z,10.70
2019-03-30T07:01:40.428Z,10.80
2019-03-30T07:03:42.658Z,11.00
2019-03-30T07:05:45.174Z,11.30
2019-03-30T07:07:47.398Z,11.50
2019-03-30T07:09:51.512Z,11.50
2019-03-30T07:11:54.023Z,11.70
2019-03-30T07:13:57.310Z,12.00
2019-03-30T07:16:00.294Z,12.10
2019-03-30T07:18:02.516Z,12.40
2019-03-30T07:20:06.659Z,12.60
2019-03-30T07:22:08.886Z,12.80
2019-03-30T07:24:11.408Z,12.80
2019-03-30T07:26:13.626Z,12.70
2019-03-30T07:28:15.874Z,12.90
2019-03-30T07:30:18.094Z,13.20
2019-03-30T07:32:20.627Z,13.20
2019-03-30T07:34:22.858Z,13.30
2019-03-30T07:36:25.342Z,13.50
2019-03-30T07:38:27.572Z,13.40
2019-03-30T07:40:29.795Z,13.60
2019-03-30T07:42:32.003Z,13.70
2019-03-30T07:44:34.230Z,13.90
2019-03-30T07:46:36.438Z,14.00
2019-03-30T07:48:38.670Z,14.10
2019-03-30T07:50:40.890Z,14.20
2019-03-30T07:52:43.438Z,14.30
2019-03-30T07:54:45.666Z,14.60
2019-03-30T07:56:47.897Z,14.40
2019-03-30T07:58:50.124Z,14.90
2019-03-30T08:00:52.346Z,15.00
2019-03-30T08:02:54.663Z,15.10
2019-03-30T08:04:56.924Z,15.20
2019-03-30T08:06:59.400Z,15.50
2019-03-30T08:09:02.652Z,15.70
2019-03-30T08:11:04.867Z,15.90
2019-03-30T08:13:07.081Z,16.00
2019-03-30T08:15:09.388Z,16.10
2019-03-30T08:17:11.598Z,16.20
2019-03-30T08:19:14.228Z,16.20
2019-03-30T08:21:16.726Z,16.40
2019-03-30T08:23:19.033Z,16.50
2019-03-30T08:25:21.250Z,16.80
2019-03-30T08:27:23.462Z,16.90
2019-03-30T08:29:25.985Z,17.30
2019-03-30T08:31:28.281Z,17.20
2019-03-30T08:33:30.741Z,17.70
2019-03-30T08:35:32.956Z,17.80
2019-03-30T08:37:35.316Z,17.90
2019-03-30T08:39:37.537Z,18.00
2019-03-30T08:41:39.738Z,18.50
2019-03-30T08:43:41.972Z,18.70
2019-03-30T08:45:44.178Z,18.90
2019-03-30T08:47:46.395Z,19.20
2019-03-30T08:49:48.614Z,19.00
2019-03-30T08:51:50.830Z,19.10
2019-03-30T08:53:54.867Z,19.70
2019-03-30T08:55:57.182Z,19.60
2019-03-30T08:57:59.673Z,19.70
2019-03-30T09:00:01.894Z,19.90
2019-03-30T09:02:04.130Z,20.20
2019-03-30T09:04:06.353Z,19.60
2019-03-30T09:06:09.529Z,19.50
2019-03-30T09:08:11.774Z,20.00
2019-03-30T09:10:13.996Z,19.70
2019-03-30T09:12:16.218Z,19.40
2019-03-30T09:14:18.466Z,19.90
2019-03-30T09:16:20.737Z,19.80
2019-03-30T09:18:23.054Z,19.50
2019-03-30T09:20:25.287Z,19.20
2019-03-30T09:22:27.501Z,19.80
2019-03-30T09:24:29.825Z,19.70
2019-03-30T09:26:32.054Z,20.10
2019-03-30T09:28:34.558Z,20.30
2019-03-30T09:30:37.129Z,20.70
2019-03-30T09:32:39.350Z,20.60
2019-03-30T09:34:41.582Z,21.10
2019-03-30T09:36:43.929Z,21.40
2019-03-30T09:38:46.314Z,21.10
2019-03-30T09:40:48.530Z,21.30
2019-03-30T09:42:50.740Z,21.90
2019-03-30T09:44:52.969Z,21.50
2019-03-30T09:46:55.177Z,21.70
2019-03-30T09:48:57.401Z,20.80
2019-03-30T09:50:59.614Z,20.90
2019-03-30T09:53:02.161Z,20.60
2019-03-30T09:55:04.722Z,21.50
2019-03-30T09:57:06.944Z,21.10
2019-03-30T09:59:09.257Z,21.00
2019-03-30T10:01:11.481Z,21.10
2019-03-30T10:03:13.696Z,20.80
2019-03-30T10:05:15.900Z,20.80
2019-03-30T10:07:18.137Z,20.70
2019-03-30T10:09:20.697Z,21.20
2019-03-30T10:11:22.905Z,21.20
2019-03-30T10:13:25.117Z,21.50
2019-03-30T10:15:27.348Z,21.90
2019-03-30T10:17:29.566Z,22.50
2019-03-30T10:19:31.795Z,22.50
2019-03-30T10:21:34.102Z,23.00
2019-03-30T10:23:36.318Z,22.70
2019-03-30T10:25:38.544Z,22.80
2019-03-30T10:27:40.747Z,22.70
2019-03-30T10:29:43.027Z,22.30
2019-03-30T10:31:45.530Z,21.40
2019-03-30T10:33:47.745Z,22.40
2019-03-30T10:35:49.968Z,22.60
2019-03-30T10:37:52.190Z,22.60
2019-03-30T10:39:54.420Z,23.00
2019-03-30T10:41:56.634Z,23.00
2019-03-30T10:43:58.854Z,23.30
2019-03-30T10:46:01.074Z,23.00
2019-03-30T10:48:04.377Z,23.10
2019-03-30T10:50:06.868Z,22.90
2019-03-30T10:52:09.322Z,23.30
2019-03-30T10:54:11.537Z,22.60
2019-03-30T10:56:13.756Z,23.10
2019-03-30T10:58:15.953Z,22.40
2019-03-30T11:00:33.078Z,23.40
2019-03-30T11:02:35.289Z,23.30
2019-03-30T11:04:37.844Z,23.90
2019-03-30T11:06:40.642Z,24.10
2019-03-30T11:08:42.853Z,23.90
2019-03-30T11:10:45.378Z,24.00
2019-03-30T11:12:47.598Z,24.00
2019-03-30T11:14:50.119Z,23.30
2019-03-30T11:16:52.338Z,24.50
2019-03-30T11:18:54.554Z,24.50
2019-03-30T11:20:56.777Z,23.80
2019-03-30T11:22:59.098Z,24.30
2019-03-30T11:25:07.643Z,24.10
2019-03-30T11:27:05.437Z,23.50
2019-03-30T11:29:07.675Z,23.50
2019-03-30T11:31:10.184Z,23.50
2019-03-30T11:33:12.413Z,23.80
2019-03-30T11:35:14.630Z,24.20
2019-03-30T11:37:16.850Z,24.10
2019-03-30T11:39:19.073Z,24.30
2019-03-30T11:41:24.721Z,23.60
2019-03-30T11:43:25.408Z,24.00
2019-03-30T11:45:27.634Z,23.20
2019-03-30T11:47:30.168Z,23.00
2019-03-30T11:49:32.387Z,23.30
2019-03-30T11:51:34.585Z,23.60
2019-03-30T11:53:36.814Z,23.60
2019-03-30T11:55:39.042Z,23.40
2019-03-30T11:57:41.602Z,23.30
2019-03-30T11:59:44.190Z,24.00
2019-03-30T12:01:46.401Z,24.30
2019-03-30T12:03:48.608Z,24.10
2019-03-30T12:05:51.172Z,23.10
2019-03-30T12:07:53.397Z,23.90
2019-03-30T12:09:55.856Z,24.10
2019-03-30T12:11:58.075Z,22.40
2019-03-30T12:14:00.286Z,23.10
2019-03-30T12:16:02.509Z,22.90
2019-03-30T12:18:04.741Z,22.90
2019-03-30T12:20:07.077Z,22.80
2019-03-30T12:22:09.289Z,22.70
2019-03-30T12:24:11.502Z,21.70
2019-03-30T12:26:13.727Z,22.00
2019-03-30T12:28:15.938Z,23.10
2019-03-30T12:30:18.209Z,23.50
2019-03-30T12:32:20.422Z,24.50
2019-03-30T12:34:22.918Z,23.30
2019-03-30T12:36:25.146Z,22.90
2019-03-30T12:38:27.363Z,23.50
2019-03-30T12:40:29.586Z,22.60
2019-03-30T12:42:31.812Z,22.00
2019-03-30T12:44:34.146Z,23.30
2019-03-30T12:46:36.349Z,22.90
2019-03-30T12:48:38.564Z,22.70
2019-03-30T12:50:40.790Z,23.10
2019-03-30T12:52:43.004Z,22.60
2019-03-30T12:54:45.242Z,23.30
2019-03-30T12:56:47.469Z,22.90
2019-03-30T12:58:49.684Z,22.80
2019-03-30T13:00:52.162Z,22.40
2019-03-30T13:02:54.569Z,21.80
2019-03-30T13:04:57.087Z,22.60
2019-03-30T13:06:59.302Z,21.80
2019-03-30T13:09:01.524Z,21.60
2019-03-30T13:11:06.022Z,21.90
2019-03-30T13:13:08.233Z,21.50
2019-03-30T13:15:10.792Z,22.00
2019-03-30T13:17:13.005Z,21.70
2019-03-30T13:19:15.217Z,21.30
2019-03-30T13:21:17.501Z,21.10
2019-03-30T13:23:20.052Z,21.00
2019-03-30T13:25:22.279Z,21.70
2019-03-30T13:27:24.806Z,22.50
2019-03-30T13:29:27.022Z,22.30
2019-03-30T13:31:29.246Z,22.50
2019-03-30T13:33:31.458Z,23.30
2019-03-30T13:35:33.680Z,22.40
2019-03-30T13:37:35.901Z,22.30
2019-03-30T13:39:38.206Z,22.80
2019-03-30T13:41:40.830Z,22.90
2019-03-30T13:43:43.082Z,22.40
2019-03-30T13:45:45.289Z,22.30
2019-03-30T13:47:47.486Z,22.20
2019-03-30T13:49:49.701Z,22.00
2019-03-30T13:51:51.926Z,22.40
2019-03-30T13:53:54.146Z,23.30
2019-03-30T13:55:56.390Z,24.10
2019-03-30T13:57:58.602Z,24.50
2019-03-30T14:00:01.160Z,24.60
2019-03-30T14:02:03.381Z,24.90
2019-03-30T14:04:05.597Z,24.10
2019-03-30T14:06:07.821Z,23.60
2019-03-30T14:08:10.042Z,23.70
2019-03-30T14:10:13.100Z,23.70
2019-03-30T14:12:15.517Z,23.50
2019-03-30T14:14:17.733Z,23.60
2019-03-30T14:16:19.958Z,23.40
2019-03-30T14:18:22.174Z,22.90
2019-03-30T14:20:24.740Z,23.60
2019-03-30T14:22:26.974Z,23.00
2019-03-30T14:24:29.190Z,22.60
2019-03-30T14:26:32.004Z,21.90
2019-03-30T14:28:34.697Z,21.10
2019-03-30T14:30:37.457Z,20.90
2019-03-30T14:32:40.108Z,20.90
2019-03-30T14:34:42.585Z,20.60
2019-03-30T14:36:45.166Z,20.50
2019-03-30T14:38:48.144Z,20.60
2019-03-30T14:40:51.964Z,20.40
2019-03-30T14:42:55.032Z,20.40
2019-03-30T14:44:57.669Z,20.00
2019-03-30T14:47:00.117Z,19.90
2019-03-30T14:49:02.670Z,20.00
2019-03-30T14:51:05.189Z,20.40
2019-03-30T14:53:07.410Z,20.30
2019-03-30T14:55:09.716Z,20.40
2019-03-30T14:57:12.014Z,20.10
2019-03-30T14:59:14.509Z,19.90
2019-03-30T15:01:16.946Z,19.80
2019-03-30T15:03:19.426Z,19.50
2019-03-30T15:05:21.638Z,19.40
2019-03-30T15:07:23.866Z,19.30
2019-03-30T15:09:26.086Z,19.30
2019-03-30T15:11:28.313Z,19.30
2019-03-30T15:13:30.533Z,19.10
2019-03-30T15:15:32.740Z,19.10
2019-03-30T15:17:34.969Z,19.10
2019-03-30T15:19:37.428Z,19.00
2019-03-30T15:21:39.660Z,19.10
2019-03-30T15:23:41.876Z,19.10
2019-03-30T15:25:44.097Z,19.30
2019-03-30T15:27:46.315Z,19.40
2019-03-30T15:29:48.525Z,19.40
2019-03-30T15:31:50.755Z,19.20
2019-03-30T15:33:53.466Z,19.20
2019-03-30T15:35:56.075Z,19.10
2019-03-30T15:37:58.302Z,19.10
2019-03-30T15:40:00.544Z,19.00
2019-03-30T15:42:02.930Z,18.90
2019-03-30T15:44:05.207Z,18.90
2019-03-30T15:46:07.450Z,19.00
2019-03-30T15:48:09.674Z,19.10
2019-03-30T15:50:11.951Z,19.20
2019-03-30T15:52:14.529Z,19.40
2019-03-30T15:54:17.166Z,19.50
2019-03-30T15:56:19.413Z,19.40
2019-03-30T15:58:21.638Z,19.30
2019-03-30T16:00:23.849Z,19.10
2019-03-30T16:02:26.074Z,18.90
2019-03-30T16:04:28.290Z,18.90
2019-03-30T16:06:30.492Z,19.00
2019-03-30T16:08:32.712Z,18.80
2019-03-30T16:10:34.921Z,18.50
2019-03-30T16:12:37.148Z,18.30
2019-03-30T16:14:39.358Z,18.10
2019-03-30T16:16:41.568Z,18.10
2019-03-30T16:18:43.799Z,18.10
2019-03-30T16:20:46.013Z,18.00
2019-03-30T16:22:48.235Z,18.10
2019-03-30T16:24:50.450Z,18.10
2019-03-30T16:26:52.663Z,17.90
2019-03-30T16:28:54.872Z,17.90
2019-03-30T16:30:57.087Z,17.90
2019-03-30T16:32:59.313Z,17.80
2019-03-30T16:35:01.834Z,17.70
2019-03-30T16:37:04.054Z,17.60
2019-03-30T16:39:06.533Z,17.50
2019-03-30T16:41:09.006Z,17.50
2019-03-30T16:43:11.224Z,17.40
2019-03-30T16:45:13.442Z,17.40
2019-03-30T16:47:15.698Z,17.30
2019-03-30T16:49:17.913Z,17.30
2019-03-30T16:51:20.144Z,17.30
2019-03-30T16:53:22.377Z,17.20
2019-03-30T16:55:24.591Z,17.20
2019-03-30T16:57:27.670Z,17.00
2019-03-30T16:59:30.147Z,17.00
2019-03-30T17:01:32.365Z,16.90
2019-03-30T17:03:34.579Z,16.90
2019-03-30T17:05:36.797Z,16.80
2019-03-30T17:07:39.041Z,16.70
2019-03-30T17:09:41.558Z,16.70
2019-03-30T17:11:43.876Z,16.60
2019-03-30T17:13:46.100Z,16.50
2019-03-30T17:15:48.338Z,16.40
2019-03-30T17:17:50.569Z,16.40
2019-03-30T17:19:52.786Z,16.30
2019-03-30T17:21:55.027Z,16.20
2019-03-30T17:23:57.298Z,16.10
2019-03-30T17:25:59.538Z,16.00
2019-03-30T17:28:01.776Z,15.90
2019-03-30T17:30:04.822Z,15.80
2019-03-30T17:32:07.137Z,15.70
2019-03-30T17:34:09.370Z,15.60
2019-03-30T17:36:11.582Z,15.60
2019-03-30T17:38:14.038Z,15.40
2019-03-30T17:40:16.270Z,15.40
2019-03-30T17:42:18.481Z,15.30
2019-03-30T17:44:20.716Z,15.20
2019-03-30T17:46:22.930Z,15.10
2019-03-30T17:48:25.532Z,15.00
2019-03-30T17:50:27.755Z,14.80
2019-03-30T17:52:29.952Z,14.80
2019-03-30T17:54:32.177Z,14.60
2019-03-30T17:56:34.400Z,14.40
2019-03-30T17:58:36.873Z,14.30
2019-03-30T18:00:39.092Z,14.30
2019-03-30T18:02:41.300Z,14.20
2019-03-30T18:04:43.537Z,14.10
2019-03-30T18:06:46.002Z,14.10
2019-03-30T18:08:48.234Z,14.00
2019-03-30T18:10:50.446Z,14.00
2019-03-30T18:12:53.025Z,13.90
2019-03-30T18:14:55.529Z,13.90
2019-03-30T18:16:58.393Z,13.80
2019-03-30T18:19:00.612Z,13.80
2019-03-30T18:21:02.831Z,13.80
2019-03-30T18:23:05.319Z,13.80
2019-03-30T18:25:07.553Z,13.70
2019-03-30T18:27:10.070Z,13.70
2019-03-30T18:29:12.297Z,13.60
2019-03-30T18:31:14.509Z,13.40
2019-03-30T18:33:16.729Z,13.30
2019-03-30T18:35:18.946Z,13.30
2019-03-30T18:37:21.158Z,13.20
2019-03-30T18:39:23.732Z,13.10
2019-03-30T18:41:26.405Z,13.10
2019-03-30T18:43:48.537Z,13.10
2019-03-30T18:45:51.061Z,12.90
2019-03-30T18:47:53.976Z,12.90
2019-03-30T18:49:56.209Z,12.90
2019-03-30T18:51:58.429Z,12.80
2019-03-30T18:54:00.655Z,12.80
2019-03-30T18:56:02.878Z,12.70
2019-03-30T18:58:05.088Z,12.70
2019-03-30T19:00:07.377Z,12.70
2019-03-30T19:02:09.986Z,12.60
2019-03-30T19:04:12.213Z,12.60
2019-03-30T19:06:14.423Z,12.50
2019-03-30T19:08:16.637Z,12.50
2019-03-30T19:10:18.869Z,12.40
2019-03-30T19:12:21.080Z,12.30
2019-03-30T19:14:23.352Z,12.30
2019-03-30T19:16:25.557Z,12.20
2019-03-30T19:18:27.865Z,12.20
2019-03-30T19:20:30.076Z,12.20
2019-03-30T19:22:32.293Z,12.20
2019-03-30T19:24:34.530Z,12.10
2019-03-30T19:26:37.083Z,12.10
2019-03-30T19:28:39.276Z,12.00
2019-03-30T19:30:42.335Z,11.90
2019-03-30T19:32:45.386Z,11.90
2019-03-30T19:34:47.604Z,11.80
2019-03-30T19:36:49.886Z,11.80
2019-03-30T19:38:52.745Z,11.80
2019-03-30T19:40:54.965Z,11.70
2019-03-30T19:42:57.182Z,11.70
2019-03-30T19:44:59.401Z,11.70
2019-03-30T19:47:01.609Z,11.70
2019-03-30T19:49:04.124Z,11.60
2019-03-30T19:51:06.340Z,11.60
2019-03-30T19:53:08.566Z,11.60
2019-03-30T19:55:10.843Z,11.60
2019-03-30T19:57:13.066Z,11.60
2019-03-30T19:59:15.291Z,11.60
2019-03-30T20:01:17.505Z,11.50
2019-03-30T20:03:19.725Z,11.50
2019-03-30T20:05:21.949Z,11.40
2019-03-30T20:07:24.166Z,11.30
2019-03-30T20:09:26.402Z,11.30
2019-03-30T20:14:00.205Z,11.30
2019-03-30T20:16:02.885Z,11.40
2019-03-30T20:18:05.102Z,11.50
2019-03-30T20:20:08.044Z,11.60
2019-03-30T20:22:10.520Z,11.70
2019-03-30T20:24:12.735Z,11.70
2019-03-30T20:26:14.989Z,11.80
2019-03-30T20:28:17.188Z,11.80
2019-03-30T20:30:19.421Z,11.80
2019-03-30T20:32:21.637Z,11.80
2019-03-30T20:34:23.857Z,11.80
2019-03-30T20:36:26.129Z,11.80
2019-03-30T20:38:28.726Z,11.70
2019-03-30T20:40:30.949Z,11.70
2019-03-30T20:42:33.156Z,11.70
2019-03-30T20:44:35.380Z,11.70
2019-03-30T20:46:37.601Z,11.70
2019-03-30T20:48:39.828Z,11.70
2019-03-30T20:50:42.351Z,11.70
2019-03-30T20:52:44.631Z,11.70
2019-03-30T20:54:46.873Z,11.70
2019-03-30T20:56:49.088Z,11.60
2019-03-30T20:58:51.305Z,11.60
2019-03-30T21:00:53.533Z,11.60
2019-03-30T21:02:55.818Z,11.60
2019-03-30T21:04:58.394Z,11.60
2019-03-30T21:07:00.613Z,11.70
2019-03-30T21:09:05.538Z,11.70
2019-03-30T21:11:07.775Z,11.70
2019-03-30T21:13:09.997Z,11.70
2019-03-30T21:15:12.233Z,11.70
2019-03-30T21:17:14.451Z,11.50
2019-03-30T21:19:16.662Z,11.50
2019-03-30T21:21:18.889Z,11.50
2019-03-30T21:23:21.102Z,11.40
2019-03-30T21:25:23.339Z,11.40
2019-03-30T21:27:25.570Z,11.30
2019-03-30T21:29:27.780Z,11.20
2019-03-30T21:31:30.011Z,11.10
2019-03-30T21:33:32.291Z,11.10
2019-03-30T21:35:34.545Z,11.00
2019-03-30T21:37:36.758Z,10.90
2019-03-30T21:39:38.978Z,10.90
2019-03-30T21:41:41.201Z,10.90
2019-03-30T21:43:43.419Z,10.80
2019-03-30T21:45:45.637Z,10.80
2019-03-30T21:47:47.919Z,10.80
2019-03-30T21:49:50.121Z,10.70
2019-03-30T21:51:52.365Z,10.70
2019-03-30T21:53:54.685Z,10.60
2019-03-30T21:55:56.921Z,10.60
2019-03-30T21:57:59.480Z,10.60
2019-03-30T22:00:09.929Z,10.40
2019-03-30T22:02:05.834Z,10.40
2019-03-30T22:04:08.048Z,10.10
2019-03-30T22:06:10.277Z,10.10
2019-03-30T22:08:12.489Z,10.10
2019-03-30T22:10:19.045Z,10.10
2019-03-30T22:12:21.279Z,10.10
2019-03-30T22:14:23.499Z,10.10
2019-03-30T22:16:25.735Z,10.10
2019-03-30T22:18:27.946Z,10.00
2019-03-30T22:20:30.153Z,10.00
2019-03-30T22:22:32.369Z,10.00
2019-03-30T22:24:34.590Z,9.90
2019-03-30T22:26:36.819Z,9.90
2019-03-30T22:28:39.033Z,10.00
2019-03-30T22:30:41.244Z,9.90
2019-03-30T22:32:43.464Z,9.90
2019-03-30T22:34:45.693Z,9.90
2019-03-30T22:36:47.900Z,9.80
2019-03-30T22:38:50.133Z,9.80
2019-03-30T22:40:52.441Z,9.80
2019-03-30T22:42:54.661Z,9.70
2019-03-30T22:44:56.878Z,9.70
2019-03-30T22:46:59.097Z,9.70
2019-03-30T22:49:01.308Z,9.70
2019-03-30T22:51:03.529Z,9.70
2019-03-30T22:53:05.750Z,9.70
2019-03-30T22:55:07.977Z,9.60
2019-03-30T22:57:10.230Z,9.50
2019-03-30T22:59:12.443Z,9.60
2019-03-30T23:01:17.206Z,9.50
2019-03-30T23:03:19.409Z,9.50
2019-03-30T23:05:21.616Z,9.50
2019-03-30T23:07:23.841Z,9.40
2019-03-30T23:09:26.054Z,9.50
2019-03-30T23:11:28.633Z,9.50
2019-03-30T23:13:30.854Z,9.40
2019-03-30T23:15:33.402Z,9.40
2019-03-30T23:17:35.628Z,9.40
2019-03-30T23:19:38.141Z,9.40
2019-03-30T23:21:40.621Z,9.30
2019-03-30T23:23:43.453Z,9.30
2019-03-30T23:25:45.677Z,9.20
2019-03-30T23:27:48.194Z,9.20
2019-03-30T23:29:50.682Z,9.10
2019-03-30T23:31:52.904Z,8.80
2019-03-30T23:33:55.116Z,8.80
2019-03-30T23:35:57.329Z,8.80
2019-03-30T23:37:59.558Z,8.80
2019-03-30T23:40:01.781Z,8.90
2019-03-30T23:42:04.269Z,8.90
2019-03-30T23:44:06.485Z,8.90
2019-03-30T23:46:09.121Z,8.80
2019-03-30T23:48:11.354Z,8.70
2019-03-30T23:50:13.575Z,8.70
2019-03-30T23:52:15.803Z,8.60
2019-03-30T23:54:18.021Z,8.70
2019-03-30T23:56:21.653Z,8.70
2019-03-30T23:58:23.873Z,8.80
